sensor_id;sensor_type;location;lat;lon;timestamp;temperature;humidity
19880;DHT22;10102;50.828;4.416;2022-11-13T00:01:16;10.30;99.90
19880;DHT22;10102;50.828;4.416;2022-11-13T00:03:42;9.90;99.90
19880;DHT22;10102;50.828;4.416;2022-11-13T00:06:09;10.50;99.90
19880;DHT22;10102;50.828;4.416;2022-11-13T00:08:35;9.90;99.90
19880;DHT22;10102;50.828;4.416;2022-11-13T00:11:06;10.10;99.90
19880;DHT22;10102;50.828;4.416;2022-11-13T00:13:33;10.30;99.90
19880;DHT22;10102;50.828;4.416;2022-11-13T00:16:01;9.80;99.90
19880;DHT22;10102;50.828;4.416;2022-11-13T00:18:27;9.80;99.90
19880;DHT22;10102;50.828;4.416;2022-11-13T00:20:55;9.70;99.90
19880;DHT22;10102;50.828;4.416;2022-11-13T00:23:22;9.80;99.90
19880;DHT22;10102;50.828;4.416;2022-11-13T00:25:48;9.90;99.90
19880;DHT22;10102;50.828;4.416;2022-11-13T00:28:14;10.00;99.90
19880;DHT22;10102;50.828;4.416;2022-11-13T00:30:40;10.00;99.90
19880;DHT22;10102;50.828;4.416;2022-11-13T00:33:06;10.10;99.90
19880;DHT22;10102;50.828;4.416;2022-11-13T00:35:32;10.10;99.90
19880;DHT22;10102;50.828;4.416;2022-11-13T00:37:58;10.20;99.90
19880;DHT22;10102;50.828;4.416;2022-11-13T00:40:23;10.20;99.90
19880;DHT22;10102;50.828;4.416;2022-11-13T00:42:49;10.00;99.90
19880;DHT22;10102;50.828;4.416;2022-11-13T00:45:15;10.10;99.90
19880;DHT22;10102;50.828;4.416;2022-11-13T00:47:40;10.10;99.90
19880;DHT22;10102;50.828;4.416;2022-11-13T00:50:06;9.70;99.90
19880;DHT22;10102;50.828;4.416;2022-11-13T00:52:32;9.60;99.90
19880;DHT22;10102;50.828;4.416;2022-11-13T00:57:23;9.60;99.90
19880;DHT22;10102;50.828;4.416;2022-11-13T00:59:49;9.60;99.90
19880;DHT22;10102;50.828;4.416;2022-11-13T01:02:15;9.70;99.90
19880;DHT22;10102;50.828;4.416;2022-11-13T01:04:41;9.80;99.90
19880;DHT22;10102;50.828;4.416;2022-11-13T01:07:07;9.90;99.90
19880;DHT22;10102;50.828;4.416;2022-11-13T01:09:33;9.80;99.90
19880;DHT22;10102;50.828;4.416;2022-11-13T01:11:58;9.80;99.90
19880;DHT22;10102;50.828;4.416;2022-11-13T01:14:24;9.80;99.90
19880;DHT22;10102;50.828;4.416;2022-11-13T01:16:50;9.80;99.90
19880;DHT22;10102;50.828;4.416;2022-11-13T01:19:16;9.70;99.90
19880;DHT22;10102;50.828;4.416;2022-11-13T01:21:41;9.50;99.90
19880;DHT22;10102;50.828;4.416;2022-11-13T01:24:07;10.10;99.90
19880;DHT22;10102;50.828;4.416;2022-11-13T01:26:33;9.60;99.90
19880;DHT22;10102;50.828;4.416;2022-11-13T01:28:59;9.80;99.90
19880;DHT22;10102;50.828;4.416;2022-11-13T01:31:27;9.70;99.90
19880;DHT22;10102;50.828;4.416;2022-11-13T01:33:53;9.90;99.90
19880;DHT22;10102;50.828;4.416;2022-11-13T01:36:24;8.50;99.90
19880;DHT22;10102;50.828;4.416;2022-11-13T01:38:51;9.60;99.90
19880;DHT22;10102;50.828;4.416;2022-11-13T01:41:20;9.50;99.90
19880;DHT22;10102;50.828;4.416;2022-11-13T01:43:46;9.10;99.90
19880;DHT22;10102;50.828;4.416;2022-11-13T01:46:20;9.40;99.90
19880;DHT22;10102;50.828;4.416;2022-11-13T01:48:54;9.70;99.90
19880;DHT22;10102;50.828;4.416;2022-11-13T01:51:57;9.50;99.90
19880;DHT22;10102;50.828;4.416;2022-11-13T01:54:18;9.40;99.90
19880;DHT22;10102;50.828;4.416;2022-11-13T01:56:45;9.40;99.90
19880;DHT22;10102;50.828;4.416;2022-11-13T01:59:17;9.60;99.90
19880;DHT22;10102;50.828;4.416;2022-11-13T02:01:45;9.50;99.90
19880;DHT22;10102;50.828;4.416;2022-11-13T02:04:10;9.70;99.90
19880;DHT22;10102;50.828;4.416;2022-11-13T02:06:50;9.60;99.90
19880;DHT22;10102;50.828;4.416;2022-11-13T02:09:20;10.20;99.90
19880;DHT22;10102;50.828;4.416;2022-11-13T02:11:46;9.70;99.90
19880;DHT22;10102;50.828;4.416;2022-11-13T02:14:13;10.00;99.90
19880;DHT22;10102;50.828;4.416;2022-11-13T02:16:41;9.60;99.90
19880;DHT22;10102;50.828;4.416;2022-11-13T02:19:19;9.60;99.90
19880;DHT22;10102;50.828;4.416;2022-11-13T02:24:33;9.50;99.90
19880;DHT22;10102;50.828;4.416;2022-11-13T02:27:04;9.50;99.90
19880;DHT22;10102;50.828;4.416;2022-11-13T02:29:31;9.40;99.90
19880;DHT22;10102;50.828;4.416;2022-11-13T02:31:56;9.80;99.90
19880;DHT22;10102;50.828;4.416;2022-11-13T02:34:22;10.20;99.90
19880;DHT22;10102;50.828;4.416;2022-11-13T02:36:48;9.20;99.90
19880;DHT22;10102;50.828;4.416;2022-11-13T02:39:14;9.30;99.90
19880;DHT22;10102;50.828;4.416;2022-11-13T02:41:39;9.20;99.90
19880;DHT22;10102;50.828;4.416;2022-11-13T02:44:06;9.30;99.90
19880;DHT22;10102;50.828;4.416;2022-11-13T02:46:32;9.40;99.90
19880;DHT22;10102;50.828;4.416;2022-11-13T02:48:58;9.40;99.90
19880;DHT22;10102;50.828;4.416;2022-11-13T02:51:24;9.50;99.90
19880;DHT22;10102;50.828;4.416;2022-11-13T02:53:50;9.00;99.90
19880;DHT22;10102;50.828;4.416;2022-11-13T02:56:16;9.40;99.90
19880;DHT22;10102;50.828;4.416;2022-11-13T02:58:41;9.20;99.90
19880;DHT22;10102;50.828;4.416;2022-11-13T03:01:07;9.20;99.90
19880;DHT22;10102;50.828;4.416;2022-11-13T03:03:33;9.30;99.90
19880;DHT22;10102;50.828;4.416;2022-11-13T03:05:58;9.10;99.90
19880;DHT22;10102;50.828;4.416;2022-11-13T03:08:24;9.20;99.90
19880;DHT22;10102;50.828;4.416;2022-11-13T03:10:51;10.40;99.90
19880;DHT22;10102;50.828;4.416;2022-11-13T03:13:16;9.20;99.90
19880;DHT22;10102;50.828;4.416;2022-11-13T03:15:42;9.20;99.90
19880;DHT22;10102;50.828;4.416;2022-11-13T03:18:08;9.30;99.90
19880;DHT22;10102;50.828;4.416;2022-11-13T03:20:38;9.20;99.90
19880;DHT22;10102;50.828;4.416;2022-11-13T03:23:04;9.30;99.90
19880;DHT22;10102;50.828;4.416;2022-11-13T03:25:32;9.30;99.90
19880;DHT22;10102;50.828;4.416;2022-11-13T03:27:57;8.60;99.90
19880;DHT22;10102;50.828;4.416;2022-11-13T03:30:23;10.00;99.90
19880;DHT22;10102;50.828;4.416;2022-11-13T03:32:54;9.40;99.90
19880;DHT22;10102;50.828;4.416;2022-11-13T03:35:22;9.30;99.90
19880;DHT22;10102;50.828;4.416;2022-11-13T03:37:48;9.00;99.90
19880;DHT22;10102;50.828;4.416;2022-11-13T03:40:14;9.10;99.90
19880;DHT22;10102;50.828;4.416;2022-11-13T03:42:40;8.80;99.90
19880;DHT22;10102;50.828;4.416;2022-11-13T03:45:06;8.90;99.90
19880;DHT22;10102;50.828;4.416;2022-11-13T03:49:57;9.00;99.90
19880;DHT22;10102;50.828;4.416;2022-11-13T03:52:25;9.00;99.90
19880;DHT22;10102;50.828;4.416;2022-11-13T03:54:51;9.00;99.90
19880;DHT22;10102;50.828;4.416;2022-11-13T03:57:16;9.20;99.90
19880;DHT22;10102;50.828;4.416;2022-11-13T03:59:42;9.20;99.90
19880;DHT22;10102;50.828;4.416;2022-11-13T04:02:08;9.20;99.90
19880;DHT22;10102;50.828;4.416;2022-11-13T04:04:33;9.40;99.90
19880;DHT22;10102;50.828;4.416;2022-11-13T04:06:59;9.40;99.90
19880;DHT22;10102;50.828;4.416;2022-11-13T04:09:25;9.50;99.90
19880;DHT22;10102;50.828;4.416;2022-11-13T04:11:50;9.80;99.90
19880;DHT22;10102;50.828;4.416;2022-11-13T04:14:16;9.50;99.90
19880;DHT22;10102;50.828;4.416;2022-11-13T04:16:42;9.40;99.90
19880;DHT22;10102;50.828;4.416;2022-11-13T04:19:07;9.40;99.90
19880;DHT22;10102;50.828;4.416;2022-11-13T04:21:33;9.40;99.90
19880;DHT22;10102;50.828;4.416;2022-11-13T04:23:59;9.40;99.90
19880;DHT22;10102;50.828;4.416;2022-11-13T04:26:24;9.30;99.90
19880;DHT22;10102;50.828;4.416;2022-11-13T04:28:50;9.20;99.90
19880;DHT22;10102;50.828;4.416;2022-11-13T04:31:16;9.40;99.90
19880;DHT22;10102;50.828;4.416;2022-11-13T04:36:08;9.40;99.90
19880;DHT22;10102;50.828;4.416;2022-11-13T04:38:33;9.30;99.90
19880;DHT22;10102;50.828;4.416;2022-11-13T04:40:59;9.20;99.90
19880;DHT22;10102;50.828;4.416;2022-11-13T04:43:43;9.10;99.90
19880;DHT22;10102;50.828;4.416;2022-11-13T04:46:09;9.20;99.90
19880;DHT22;10102;50.828;4.416;2022-11-13T04:48:35;9.20;99.90
19880;DHT22;10102;50.828;4.416;2022-11-13T04:51:01;9.00;99.90
19880;DHT22;10102;50.828;4.416;2022-11-13T04:53:27;8.70;99.90
19880;DHT22;10102;50.828;4.416;2022-11-13T04:55:52;9.10;99.90
19880;DHT22;10102;50.828;4.416;2022-11-13T04:58:18;8.80;99.90
19880;DHT22;10102;50.828;4.416;2022-11-13T05:00:44;8.80;99.90
19880;DHT22;10102;50.828;4.416;2022-11-13T05:03:09;8.90;99.90
19880;DHT22;10102;50.828;4.416;2022-11-13T05:05:35;8.80;99.90
19880;DHT22;10102;50.828;4.416;2022-11-13T05:08:01;8.80;99.90
19880;DHT22;10102;50.828;4.416;2022-11-13T05:10:26;8.50;99.90
19880;DHT22;10102;50.828;4.416;2022-11-13T05:12:55;8.60;99.90
19880;DHT22;10102;50.828;4.416;2022-11-13T05:15:20;9.10;99.90
19880;DHT22;10102;50.828;4.416;2022-11-13T05:17:48;8.80;99.90
19880;DHT22;10102;50.828;4.416;2022-11-13T05:20:13;8.80;99.90
19880;DHT22;10102;50.828;4.416;2022-11-13T05:22:39;8.60;99.90
19880;DHT22;10102;50.828;4.416;2022-11-13T05:25:05;8.60;99.90
19880;DHT22;10102;50.828;4.416;2022-11-13T05:27:31;8.60;99.90
19880;DHT22;10102;50.828;4.416;2022-11-13T05:29:56;8.70;99.90
19880;DHT22;10102;50.828;4.416;2022-11-13T05:32:22;8.40;99.90
19880;DHT22;10102;50.828;4.416;2022-11-13T05:34:47;8.30;99.90
19880;DHT22;10102;50.828;4.416;2022-11-13T05:37:13;8.30;99.90
19880;DHT22;10102;50.828;4.416;2022-11-13T05:39:39;8.40;99.90
19880;DHT22;10102;50.828;4.416;2022-11-13T05:42:04;8.30;99.90
19880;DHT22;10102;50.828;4.416;2022-11-13T05:44:30;8.30;99.90
19880;DHT22;10102;50.828;4.416;2022-11-13T05:46:56;8.00;99.90
19880;DHT22;10102;50.828;4.416;2022-11-13T05:51:48;8.20;99.90
19880;DHT22;10102;50.828;4.416;2022-11-13T05:54:13;8.20;99.90
19880;DHT22;10102;50.828;4.416;2022-11-13T05:56:39;8.30;99.90
19880;DHT22;10102;50.828;4.416;2022-11-13T05:59:05;8.20;99.90
19880;DHT22;10102;50.828;4.416;2022-11-13T06:01:36;8.00;99.90
19880;DHT22;10102;50.828;4.416;2022-11-13T06:04:03;8.00;99.90
19880;DHT22;10102;50.828;4.416;2022-11-13T06:06:30;7.90;99.90
19880;DHT22;10102;50.828;4.416;2022-11-13T06:08:58;8.00;99.90
19880;DHT22;10102;50.828;4.416;2022-11-13T06:11:26;7.70;99.90
19880;DHT22;10102;50.828;4.416;2022-11-13T06:13:52;8.40;99.90
19880;DHT22;10102;50.828;4.416;2022-11-13T06:16:21;7.90;99.90
19880;DHT22;10102;50.828;4.416;2022-11-13T06:18:47;7.80;99.90
19880;DHT22;10102;50.828;4.416;2022-11-13T06:21:18;8.00;99.90
19880;DHT22;10102;50.828;4.416;2022-11-13T06:23:44;8.00;99.90
19880;DHT22;10102;50.828;4.416;2022-11-13T06:26:16;7.80;99.90
19880;DHT22;10102;50.828;4.416;2022-11-13T06:28:42;7.90;99.90
19880;DHT22;10102;50.828;4.416;2022-11-13T06:31:12;8.20;99.90
19880;DHT22;10102;50.828;4.416;2022-11-13T06:33:38;7.80;99.90
19880;DHT22;10102;50.828;4.416;2022-11-13T06:36:07;7.80;99.90
19880;DHT22;10102;50.828;4.416;2022-11-13T06:38:35;7.60;99.90
19880;DHT22;10102;50.828;4.416;2022-11-13T06:41:02;8.00;99.90
19880;DHT22;10102;50.828;4.416;2022-11-13T06:43:28;8.00;99.90
19880;DHT22;10102;50.828;4.416;2022-11-13T06:45:55;7.90;99.90
19880;DHT22;10102;50.828;4.416;2022-11-13T06:48:22;8.00;99.90
19880;DHT22;10102;50.828;4.416;2022-11-13T06:50:48;7.80;99.90
19880;DHT22;10102;50.828;4.416;2022-11-13T06:53:14;7.50;99.90
19880;DHT22;10102;50.828;4.416;2022-11-13T06:55:45;7.70;99.90
19880;DHT22;10102;50.828;4.416;2022-11-13T06:58:11;7.80;99.90
19880;DHT22;10102;50.828;4.416;2022-11-13T07:03:03;7.70;99.90
19880;DHT22;10102;50.828;4.416;2022-11-13T07:05:28;7.70;99.90
19880;DHT22;10102;50.828;4.416;2022-11-13T07:07:54;7.70;99.90
19880;DHT22;10102;50.828;4.416;2022-11-13T07:10:21;7.70;99.90
19880;DHT22;10102;50.828;4.416;2022-11-13T07:12:46;7.90;99.90
19880;DHT22;10102;50.828;4.416;2022-11-13T07:15:12;7.70;99.90
19880;DHT22;10102;50.828;4.416;2022-11-13T07:17:38;7.40;99.90
19880;DHT22;10102;50.828;4.416;2022-11-13T07:20:04;7.60;99.90
19880;DHT22;10102;50.828;4.416;2022-11-13T07:22:30;7.60;99.90
19880;DHT22;10102;50.828;4.416;2022-11-13T07:24:55;7.50;99.90
19880;DHT22;10102;50.828;4.416;2022-11-13T07:27:22;7.90;99.90
19880;DHT22;10102;50.828;4.416;2022-11-13T07:29:48;7.70;99.90
19880;DHT22;10102;50.828;4.416;2022-11-13T07:32:14;8.70;99.90
19880;DHT22;10102;50.828;4.416;2022-11-13T07:34:39;7.60;99.90
19880;DHT22;10102;50.828;4.416;2022-11-13T07:37:06;7.90;99.90
19880;DHT22;10102;50.828;4.416;2022-11-13T07:39:32;8.00;99.90
19880;DHT22;10102;50.828;4.416;2022-11-13T07:41:57;7.80;99.90
19880;DHT22;10102;50.828;4.416;2022-11-13T07:44:23;7.70;99.90
19880;DHT22;10102;50.828;4.416;2022-11-13T07:46:49;7.70;99.90
19880;DHT22;10102;50.828;4.416;2022-11-13T07:49:15;7.70;99.90
19880;DHT22;10102;50.828;4.416;2022-11-13T07:51:41;7.80;99.90
19880;DHT22;10102;50.828;4.416;2022-11-13T07:54:07;8.10;99.90
19880;DHT22;10102;50.828;4.416;2022-11-13T07:56:32;8.10;99.90
19880;DHT22;10102;50.828;4.416;2022-11-13T07:58:58;7.70;99.90
19880;DHT22;10102;50.828;4.416;2022-11-13T08:01:24;9.30;99.90
19880;DHT22;10102;50.828;4.416;2022-11-13T08:03:49;8.20;99.90
19880;DHT22;10102;50.828;4.416;2022-11-13T08:06:15;8.00;99.90
19880;DHT22;10102;50.828;4.416;2022-11-13T08:08:41;7.90;99.90
19880;DHT22;10102;50.828;4.416;2022-11-13T08:11:08;7.70;99.90
19880;DHT22;10102;50.828;4.416;2022-11-13T08:13:35;7.60;99.90
19880;DHT22;10102;50.828;4.416;2022-11-13T08:16:01;7.60;99.90
19880;DHT22;10102;50.828;4.416;2022-11-13T08:18:28;7.50;99.90
19880;DHT22;10102;50.828;4.416;2022-11-13T08:20:55;7.60;99.90
19880;DHT22;10102;50.828;4.416;2022-11-13T08:23:21;7.70;99.90
19880;DHT22;10102;50.828;4.416;2022-11-13T08:25:47;7.80;99.90
19880;DHT22;10102;50.828;4.416;2022-11-13T08:28:13;8.10;99.90
19880;DHT22;10102;50.828;4.416;2022-11-13T08:30:41;8.10;99.90
19880;DHT22;10102;50.828;4.416;2022-11-13T08:35:33;8.20;99.90
19880;DHT22;10102;50.828;4.416;2022-11-13T08:38:04;8.30;99.90
19880;DHT22;10102;50.828;4.416;2022-11-13T08:40:41;8.30;99.90
19880;DHT22;10102;50.828;4.416;2022-11-13T08:43:08;8.30;99.90
19880;DHT22;10102;50.828;4.416;2022-11-13T08:45:34;8.30;99.90
19880;DHT22;10102;50.828;4.416;2022-11-13T08:48:02;8.30;99.90
19880;DHT22;10102;50.828;4.416;2022-11-13T08:50:29;8.30;99.90
19880;DHT22;10102;50.828;4.416;2022-11-13T08:52:56;8.50;99.90
19880;DHT22;10102;50.828;4.416;2022-11-13T08:55:22;8.70;99.90
19880;DHT22;10102;50.828;4.416;2022-11-13T08:57:48;8.80;99.90
19880;DHT22;10102;50.828;4.416;2022-11-13T09:00:14;8.80;99.90
19880;DHT22;10102;50.828;4.416;2022-11-13T09:02:40;8.90;99.90
19880;DHT22;10102;50.828;4.416;2022-11-13T09:05:06;9.00;99.90
19880;DHT22;10102;50.828;4.416;2022-11-13T09:07:32;9.10;99.90
19880;DHT22;10102;50.828;4.416;2022-11-13T09:09:57;9.20;99.90
19880;DHT22;10102;50.828;4.416;2022-11-13T09:12:23;9.20;99.90
19880;DHT22;10102;50.828;4.416;2022-11-13T09:14:49;9.40;99.90
19880;DHT22;10102;50.828;4.416;2022-11-13T09:17:15;9.80;99.90
19880;DHT22;10102;50.828;4.416;2022-11-13T09:19:40;9.60;99.90
19880;DHT22;10102;50.828;4.416;2022-11-13T09:22:06;9.70;99.90
19880;DHT22;10102;50.828;4.416;2022-11-13T09:24:32;10.10;99.90
19880;DHT22;10102;50.828;4.416;2022-11-13T09:26:58;9.80;99.90
19880;DHT22;10102;50.828;4.416;2022-11-13T09:29:23;10.00;99.90
19880;DHT22;10102;50.828;4.416;2022-11-13T09:31:51;10.20;99.90
19880;DHT22;10102;50.828;4.416;2022-11-13T09:34:17;10.50;99.90
19880;DHT22;10102;50.828;4.416;2022-11-13T09:36:42;10.80;99.90
19880;DHT22;10102;50.828;4.416;2022-11-13T09:39:08;10.90;99.90
19880;DHT22;10102;50.828;4.416;2022-11-13T09:41:53;11.60;99.90
19880;DHT22;10102;50.828;4.416;2022-11-13T09:44:37;12.50;99.90
19880;DHT22;10102;50.828;4.416;2022-11-13T09:49:42;15.10;99.90
19880;DHT22;10102;50.828;4.416;2022-11-13T09:52:35;15.10;99.90
19880;DHT22;10102;50.828;4.416;2022-11-13T09:55:01;15.70;99.90
19880;DHT22;10102;50.828;4.416;2022-11-13T10:00:18;15.30;99.90
19880;DHT22;10102;50.828;4.416;2022-11-13T10:06:26;15.70;99.90
19880;DHT22;10102;50.828;4.416;2022-11-13T10:08:49;15.80;99.90
19880;DHT22;10102;50.828;4.416;2022-11-13T10:11:35;16.70;99.90
19880;DHT22;10102;50.828;4.416;2022-11-13T10:14:20;18.40;99.90
19880;DHT22;10102;50.828;4.416;2022-11-13T10:16:58;20.80;99.90
19880;DHT22;10102;50.828;4.416;2022-11-13T10:19:58;22.70;99.90
19880;DHT22;10102;50.828;4.416;2022-11-13T10:25:11;26.10;99.90
19880;DHT22;10102;50.828;4.416;2022-11-13T10:27:37;27.40;99.90
19880;DHT22;10102;50.828;4.416;2022-11-13T10:30:15;28.40;99.90
19880;DHT22;10102;50.828;4.416;2022-11-13T10:32:41;28.80;99.90
19880;DHT22;10102;50.828;4.416;2022-11-13T10:38:10;29.90;99.50
19880;DHT22;10102;50.828;4.416;2022-11-13T10:40:39;30.80;97.40
19880;DHT22;10102;50.828;4.416;2022-11-13T10:51:22;32.20;90.20
19880;DHT22;10102;50.828;4.416;2022-11-13T10:53:48;33.40;90.10
19880;DHT22;10102;50.828;4.416;2022-11-13T10:56:30;31.40;89.00
19880;DHT22;10102;50.828;4.416;2022-11-13T10:59:11;32.10;87.00
19880;DHT22;10102;50.828;4.416;2022-11-13T11:01:38;32.90;86.50
19880;DHT22;10102;50.828;4.416;2022-11-13T11:04:25;33.70;86.20
19880;DHT22;10102;50.828;4.416;2022-11-13T11:06:52;34.80;90.60
19880;DHT22;10102;50.828;4.416;2022-11-13T11:09:30;34.80;79.40
19880;DHT22;10102;50.828;4.416;2022-11-13T11:17:53;34.70;76.30
19880;DHT22;10102;50.828;4.416;2022-11-13T11:20:44;34.50;74.00
19880;DHT22;10102;50.828;4.416;2022-11-13T11:26:09;34.30;73.80
19880;DHT22;10102;50.828;4.416;2022-11-13T11:28:46;35.10;72.70
19880;DHT22;10102;50.828;4.416;2022-11-13T11:34:30;36.00;69.30
19880;DHT22;10102;50.828;4.416;2022-11-13T11:37:15;37.30;81.50
19880;DHT22;10102;50.828;4.416;2022-11-13T11:42:31;37.40;66.50
19880;DHT22;10102;50.828;4.416;2022-11-13T11:47:37;38.60;66.80
19880;DHT22;10102;50.828;4.416;2022-11-13T11:50:10;39.20;64.30
19880;DHT22;10102;50.828;4.416;2022-11-13T11:58:19;37.10;63.60
19880;DHT22;10102;50.828;4.416;2022-11-13T12:00:52;37.60;62.20
19880;DHT22;10102;50.828;4.416;2022-11-13T12:11:30;38.50;59.60
19880;DHT22;10102;50.828;4.416;2022-11-13T12:19:25;39.30;58.10
19880;DHT22;10102;50.828;4.416;2022-11-13T12:22:17;38.80;57.90
19880;DHT22;10102;50.828;4.416;2022-11-13T12:25:10;35.30;60.80
19880;DHT22;10102;50.828;4.416;2022-11-13T12:30:20;29.60;70.90
19880;DHT22;10102;50.828;4.416;2022-11-13T12:35:24;25.40;78.40
19880;DHT22;10102;50.828;4.416;2022-11-13T12:37:52;24.20;81.70
19880;DHT22;10102;50.828;4.416;2022-11-13T12:46:09;21.00;99.90
19880;DHT22;10102;50.828;4.416;2022-11-13T12:48:44;21.00;93.50
19880;DHT22;10102;50.828;4.416;2022-11-13T12:51:13;20.00;94.70
19880;DHT22;10102;50.828;4.416;2022-11-13T12:53:56;19.60;99.90
19880;DHT22;10102;50.828;4.416;2022-11-13T12:59:12;19.10;99.90
19880;DHT22;10102;50.828;4.416;2022-11-13T13:15:42;17.90;99.90
19880;DHT22;10102;50.828;4.416;2022-11-13T13:21:08;18.00;99.90
19880;DHT22;10102;50.828;4.416;2022-11-13T13:23:43;17.70;99.90
19880;DHT22;10102;50.828;4.416;2022-11-13T13:26:14;17.90;99.90
19880;DHT22;10102;50.828;4.416;2022-11-13T13:28:42;17.80;99.90
19880;DHT22;10102;50.828;4.416;2022-11-13T13:33:43;17.70;99.90
19880;DHT22;10102;50.828;4.416;2022-11-13T13:36:21;17.70;99.90
19880;DHT22;10102;50.828;4.416;2022-11-13T13:46:35;17.50;99.90
19880;DHT22;10102;50.828;4.416;2022-11-13T13:49:07;17.60;99.90
19880;DHT22;10102;50.828;4.416;2022-11-13T13:51:45;17.50;99.90
19880;DHT22;10102;50.828;4.416;2022-11-13T13:54:20;17.50;99.90
19880;DHT22;10102;50.828;4.416;2022-11-13T13:56:47;17.50;99.90
19880;DHT22;10102;50.828;4.416;2022-11-13T13:59:34;17.50;99.90
19880;DHT22;10102;50.828;4.416;2022-11-13T14:02:03;17.50;99.90
19880;DHT22;10102;50.828;4.416;2022-11-13T14:04:33;17.30;99.90
19880;DHT22;10102;50.828;4.416;2022-11-13T14:07:01;17.40;99.90
19880;DHT22;10102;50.828;4.416;2022-11-13T14:09:29;17.30;99.90
19880;DHT22;10102;50.828;4.416;2022-11-13T14:12:01;17.20;99.90
19880;DHT22;10102;50.828;4.416;2022-11-13T14:14:27;17.30;99.90
19880;DHT22;10102;50.828;4.416;2022-11-13T14:16:55;17.20;99.90
19880;DHT22;10102;50.828;4.416;2022-11-13T14:19:21;19.00;99.90
19880;DHT22;10102;50.828;4.416;2022-11-13T14:21:50;17.30;99.90
19880;DHT22;10102;50.828;4.416;2022-11-13T14:24:23;17.30;99.90
19880;DHT22;10102;50.828;4.416;2022-11-13T14:26:51;17.30;99.90
19880;DHT22;10102;50.828;4.416;2022-11-13T14:29:43;17.20;99.90
19880;DHT22;10102;50.828;4.416;2022-11-13T14:32:20;17.20;99.90
19880;DHT22;10102;50.828;4.416;2022-11-13T14:34:51;17.10;99.90
19880;DHT22;10102;50.828;4.416;2022-11-13T14:37:35;17.10;99.90
19880;DHT22;10102;50.828;4.416;2022-11-13T14:40:04;17.10;99.90
19880;DHT22;10102;50.828;4.416;2022-11-13T14:42:36;17.30;99.90
19880;DHT22;10102;50.828;4.416;2022-11-13T14:45:13;17.00;99.90
19880;DHT22;10102;50.828;4.416;2022-11-13T14:47:39;16.90;99.90
19880;DHT22;10102;50.828;4.416;2022-11-13T14:50:18;17.00;99.90
19880;DHT22;10102;50.828;4.416;2022-11-13T14:53:04;16.90;99.90
19880;DHT22;10102;50.828;4.416;2022-11-13T14:55:36;16.80;99.90
19880;DHT22;10102;50.828;4.416;2022-11-13T14:58:02;16.50;99.90
19880;DHT22;10102;50.828;4.416;2022-11-13T15:00:33;16.60;99.90
19880;DHT22;10102;50.828;4.416;2022-11-13T15:03:00;16.80;99.90
19880;DHT22;10102;50.828;4.416;2022-11-13T15:05:26;16.90;99.90
19880;DHT22;10102;50.828;4.416;2022-11-13T15:07:53;16.70;99.90
19880;DHT22;10102;50.828;4.416;2022-11-13T15:10:24;16.70;99.90
19880;DHT22;10102;50.828;4.416;2022-11-13T15:12:51;16.60;99.90
19880;DHT22;10102;50.828;4.416;2022-11-13T15:15:19;16.60;99.90
19880;DHT22;10102;50.828;4.416;2022-11-13T15:17:46;16.50;99.90
19880;DHT22;10102;50.828;4.416;2022-11-13T15:20:24;16.40;99.90
19880;DHT22;10102;50.828;4.416;2022-11-13T15:22:51;16.30;99.90
19880;DHT22;10102;50.828;4.416;2022-11-13T15:25:19;16.30;99.90
19880;DHT22;10102;50.828;4.416;2022-11-13T15:27:45;16.10;99.90
19880;DHT22;10102;50.828;4.416;2022-11-13T15:30:11;16.20;99.90
19880;DHT22;10102;50.828;4.416;2022-11-13T15:32:37;15.90;99.90
19880;DHT22;10102;50.828;4.416;2022-11-13T15:35:05;15.80;99.90
19880;DHT22;10102;50.828;4.416;2022-11-13T15:37:31;17.30;99.90
19880;DHT22;10102;50.828;4.416;2022-11-13T15:39:57;15.70;99.90
19880;DHT22;10102;50.828;4.416;2022-11-13T15:42:32;15.60;99.90
19880;DHT22;10102;50.828;4.416;2022-11-13T15:44:58;15.40;99.90
19880;DHT22;10102;50.828;4.416;2022-11-13T15:47:29;15.30;99.90
19880;DHT22;10102;50.828;4.416;2022-11-13T15:49:55;15.20;99.90
19880;DHT22;10102;50.828;4.416;2022-11-13T15:52:22;14.90;99.90
19880;DHT22;10102;50.828;4.416;2022-11-13T15:54:49;14.90;99.90
19880;DHT22;10102;50.828;4.416;2022-11-13T15:57:28;14.90;99.90
19880;DHT22;10102;50.828;4.416;2022-11-13T15:59:54;14.80;99.90
19880;DHT22;10102;50.828;4.416;2022-11-13T16:02:20;14.50;99.90
19880;DHT22;10102;50.828;4.416;2022-11-13T16:04:47;14.50;99.90
19880;DHT22;10102;50.828;4.416;2022-11-13T16:07:16;14.40;99.90
19880;DHT22;10102;50.828;4.416;2022-11-13T16:09:42;14.20;99.90
19880;DHT22;10102;50.828;4.416;2022-11-13T16:12:10;14.20;99.90
19880;DHT22;10102;50.828;4.416;2022-11-13T16:14:36;14.10;99.90
19880;DHT22;10102;50.828;4.416;2022-11-13T16:17:02;14.20;99.90
19880;DHT22;10102;50.828;4.416;2022-11-13T16:19:29;14.00;99.90
19880;DHT22;10102;50.828;4.416;2022-11-13T16:21:54;13.90;99.90
19880;DHT22;10102;50.828;4.416;2022-11-13T16:24:20;13.80;99.90
19880;DHT22;10102;50.828;4.416;2022-11-13T16:26:54;13.70;99.90
19880;DHT22;10102;50.828;4.416;2022-11-13T16:29:22;13.60;99.90
19880;DHT22;10102;50.828;4.416;2022-11-13T16:31:48;13.50;99.90
19880;DHT22;10102;50.828;4.416;2022-11-13T16:34:14;13.40;99.90
19880;DHT22;10102;50.828;4.416;2022-11-13T16:36:40;13.40;99.90
19880;DHT22;10102;50.828;4.416;2022-11-13T16:39:11;13.10;99.90
19880;DHT22;10102;50.828;4.416;2022-11-13T16:41:38;13.10;99.90
19880;DHT22;10102;50.828;4.416;2022-11-13T16:44:04;13.00;99.90
19880;DHT22;10102;50.828;4.416;2022-11-13T16:46:34;13.00;99.90
19880;DHT22;10102;50.828;4.416;2022-11-13T16:49:00;12.90;99.90
19880;DHT22;10102;50.828;4.416;2022-11-13T16:51:25;12.70;99.90
19880;DHT22;10102;50.828;4.416;2022-11-13T16:53:51;12.80;99.90
19880;DHT22;10102;50.828;4.416;2022-11-13T16:56:22;12.90;99.90
19880;DHT22;10102;50.828;4.416;2022-11-13T17:01:19;12.50;99.90
19880;DHT22;10102;50.828;4.416;2022-11-13T17:03:46;12.60;99.90
19880;DHT22;10102;50.828;4.416;2022-11-13T17:06:21;13.70;99.90
19880;DHT22;10102;50.828;4.416;2022-11-13T17:08:50;12.40;99.90
19880;DHT22;10102;50.828;4.416;2022-11-13T17:11:16;12.30;99.90
19880;DHT22;10102;50.828;4.416;2022-11-13T17:16:10;12.20;99.90
19880;DHT22;10102;50.828;4.416;2022-11-13T17:18:37;12.10;99.90
19880;DHT22;10102;50.828;4.416;2022-11-13T17:21:03;12.20;99.90
19880;DHT22;10102;50.828;4.416;2022-11-13T17:23:31;12.00;99.90
19880;DHT22;10102;50.828;4.416;2022-11-13T17:25:57;13.50;99.90
19880;DHT22;10102;50.828;4.416;2022-11-13T17:28:22;11.90;99.90
19880;DHT22;10102;50.828;4.416;2022-11-13T17:30:48;11.90;99.90
19880;DHT22;10102;50.828;4.416;2022-11-13T17:33:17;11.80;99.90
19880;DHT22;10102;50.828;4.416;2022-11-13T17:35:42;11.80;99.90
19880;DHT22;10102;50.828;4.416;2022-11-13T17:38:13;11.90;99.90
19880;DHT22;10102;50.828;4.416;2022-11-13T17:40:39;11.70;99.90
19880;DHT22;10102;50.828;4.416;2022-11-13T17:43:07;11.80;99.90
19880;DHT22;10102;50.828;4.416;2022-11-13T17:45:37;11.60;99.90
19880;DHT22;10102;50.828;4.416;2022-11-13T17:48:03;11.50;99.90
19880;DHT22;10102;50.828;4.416;2022-11-13T17:50:28;11.60;99.90